sensor_id;sensor_type;location;lat;lon;timestamp;P1;durP1;ratioP1;P2;durP2;ratioP2
33475;SDS011;19814;48.224;11.422;2023-06-22T00:01:27;6.97;;;2.90;;
33475;SDS011;19814;48.224;11.422;2023-06-22T00:03:52;7.72;;;3.00;;
33475;SDS011;19814;48.224;11.422;2023-06-22T00:06:18;6.22;;;2.97;;
33475;SDS011;19814;48.224;11.422;2023-06-22T00:08:44;8.43;;;3.03;;
33475;SDS011;19814;48.224;11.422;2023-06-22T00:11:09;5.97;;;2.45;;
33475;SDS011;19814;48.224;11.422;2023-06-22T00:13:35;7.10;;;3.25;;
33475;SDS011;19814;48.224;11.422;2023-06-22T00:16:01;9.95;;;3.47;;
33475;SDS011;19814;48.224;11.422;2023-06-22T00:18:26;8.52;;;2.80;;
33475;SDS011;19814;48.224;11.422;2023-06-22T00:20:52;7.47;;;3.42;;
33475;SDS011;19814;48.224;11.422;2023-06-22T00:23:22;8.35;;;2.80;;
33475;SDS011;19814;48.224;11.422;2023-06-22T00:25:48;8.23;;;2.75;;
33475;SDS011;19814;48.224;11.422;2023-06-22T00:28:14;5.22;;;2.28;;
33475;SDS011;19814;48.224;11.422;2023-06-22T00:30:40;8.23;;;3.35;;
33475;SDS011;19814;48.224;11.422;2023-06-22T00:33:06;6.97;;;3.30;;
33475;SDS011;19814;48.224;11.422;2023-06-22T00:35:32;6.40;;;2.80;;
33475;SDS011;19814;48.224;11.422;2023-06-22T00:37:59;7.00;;;2.50;;
33475;SDS011;19814;48.224;11.422;2023-06-22T00:40:28;10.95;;;3.28;;
33475;SDS011;19814;48.224;11.422;2023-06-22T00:42:54;7.82;;;3.17;;
33475;SDS011;19814;48.224;11.422;2023-06-22T00:45:20;5.68;;;3.03;;
33475;SDS011;19814;48.224;11.422;2023-06-22T00:47:48;6.90;;;2.95;;
33475;SDS011;19814;48.224;11.422;2023-06-22T00:50:20;7.63;;;3.22;;
33475;SDS011;19814;48.224;11.422;2023-06-22T00:52:59;8.43;;;3.10;;
33475;SDS011;19814;48.224;11.422;2023-06-22T00:55:26;6.72;;;2.70;;
33475;SDS011;19814;48.224;11.422;2023-06-22T00:57:52;7.82;;;3.05;;
33475;SDS011;19814;48.224;11.422;2023-06-22T01:00:20;6.22;;;2.60;;
33475;SDS011;19814;48.224;11.422;2023-06-22T01:02:49;6.60;;;3.08;;
33475;SDS011;19814;48.224;11.422;2023-06-22T01:05:20;8.98;;;3.17;;
33475;SDS011;19814;48.224;11.422;2023-06-22T01:10:30;6.88;;;3.15;;
33475;SDS011;19814;48.224;11.422;2023-06-22T01:13:07;6.93;;;2.80;;
33475;SDS011;19814;48.224;11.422;2023-06-22T01:15:42;5.13;;;2.65;;
33475;SDS011;19814;48.224;11.422;2023-06-22T01:18:14;4.95;;;2.75;;
33475;SDS011;19814;48.224;11.422;2023-06-22T01:20:41;6.55;;;2.70;;
33475;SDS011;19814;48.224;11.422;2023-06-22T01:26:30;6.78;;;2.78;;
33475;SDS011;19814;48.224;11.422;2023-06-22T01:28:49;5.28;;;2.58;;
33475;SDS011;19814;48.224;11.422;2023-06-22T01:31:18;6.25;;;3.10;;
33475;SDS011;19814;48.224;11.422;2023-06-22T01:33:55;6.60;;;2.65;;
33475;SDS011;19814;48.224;11.422;2023-06-22T01:36:25;8.32;;;2.65;;
33475;SDS011;19814;48.224;11.422;2023-06-22T01:38:52;8.00;;;3.10;;
33475;SDS011;19814;48.224;11.422;2023-06-22T01:41:19;6.85;;;2.95;;
33475;SDS011;19814;48.224;11.422;2023-06-22T01:43:45;7.40;;;3.10;;
33475;SDS011;19814;48.224;11.422;2023-06-22T01:46:12;7.82;;;2.90;;
33475;SDS011;19814;48.224;11.422;2023-06-22T01:48:39;6.97;;;3.00;;
33475;SDS011;19814;48.224;11.422;2023-06-22T01:51:05;6.93;;;3.03;;
33475;SDS011;19814;48.224;11.422;2023-06-22T01:53:31;8.50;;;3.70;;
33475;SDS011;19814;48.224;11.422;2023-06-22T01:55:57;7.45;;;2.85;;
33475;SDS011;19814;48.224;11.422;2023-06-22T01:58:26;7.45;;;3.50;;
33475;SDS011;19814;48.224;11.422;2023-06-22T02:01:10;9.05;;;3.20;;
33475;SDS011;19814;48.224;11.422;2023-06-22T02:03:38;7.53;;;2.92;;
33475;SDS011;19814;48.224;11.422;2023-06-22T02:06:10;7.30;;;2.95;;
33475;SDS011;19814;48.224;11.422;2023-06-22T02:08:47;7.00;;;3.00;;
33475;SDS011;19814;48.224;11.422;2023-06-22T02:11:20;7.10;;;3.03;;
33475;SDS011;19814;48.224;11.422;2023-06-22T02:13:47;7.15;;;3.20;;
33475;SDS011;19814;48.224;11.422;2023-06-22T02:16:14;10.63;;;3.55;;
33475;SDS011;19814;48.224;11.422;2023-06-22T02:18:48;6.63;;;3.25;;
33475;SDS011;19814;48.224;11.422;2023-06-22T02:21:17;7.05;;;3.22;;
33475;SDS011;19814;48.224;11.422;2023-06-22T02:23:43;8.65;;;3.17;;
33475;SDS011;19814;48.224;11.422;2023-06-22T02:26:08;5.85;;;3.65;;
33475;SDS011;19814;48.224;11.422;2023-06-22T02:28:35;8.32;;;3.53;;
33475;SDS011;19814;48.224;11.422;2023-06-22T02:31:00;7.00;;;3.60;;
33475;SDS011;19814;48.224;11.422;2023-06-22T02:33:26;7.53;;;3.92;;
33475;SDS011;19814;48.224;11.422;2023-06-22T02:35:52;10.02;;;2.92;;
33475;SDS011;19814;48.224;11.422;2023-06-22T02:38:18;6.03;;;3.15;;
33475;SDS011;19814;48.224;11.422;2023-06-22T02:40:44;8.15;;;4.00;;
33475;SDS011;19814;48.224;11.422;2023-06-22T02:43:10;7.18;;;3.15;;
33475;SDS011;19814;48.224;11.422;2023-06-22T02:45:35;9.13;;;4.10;;
33475;SDS011;19814;48.224;11.422;2023-06-22T02:48:01;8.50;;;3.78;;
33475;SDS011;19814;48.224;11.422;2023-06-22T02:50:27;8.40;;;3.90;;
33475;SDS011;19814;48.224;11.422;2023-06-22T02:52:52;8.88;;;3.67;;
33475;SDS011;19814;48.224;11.422;2023-06-22T02:55:18;10.25;;;4.00;;
33475;SDS011;19814;48.224;11.422;2023-06-22T02:57:43;10.93;;;3.72;;
33475;SDS011;19814;48.224;11.422;2023-06-22T03:00:10;7.53;;;3.78;;
33475;SDS011;19814;48.224;11.422;2023-06-22T03:02:42;6.57;;;3.13;;
33475;SDS011;19814;48.224;11.422;2023-06-22T03:05:11;11.05;;;4.43;;
33475;SDS011;19814;48.224;11.422;2023-06-22T03:07:43;7.80;;;3.75;;
33475;SDS011;19814;48.224;11.422;2023-06-22T03:10:09;8.02;;;3.55;;
33475;SDS011;19814;48.224;11.422;2023-06-22T03:12:36;7.85;;;4.45;;
33475;SDS011;19814;48.224;11.422;2023-06-22T03:15:04;9.88;;;4.03;;
33475;SDS011;19814;48.224;11.422;2023-06-22T03:17:33;9.27;;;4.03;;
33475;SDS011;19814;48.224;11.422;2023-06-22T03:20:00;11.10;;;3.78;;
33475;SDS011;19814;48.224;11.422;2023-06-22T03:22:37;12.15;;;4.75;;
33475;SDS011;19814;48.224;11.422;2023-06-22T03:25:03;9.18;;;4.00;;
33475;SDS011;19814;48.224;11.422;2023-06-22T03:27:29;9.52;;;4.05;;
33475;SDS011;19814;48.224;11.422;2023-06-22T03:29:56;10.82;;;3.85;;
33475;SDS011;19814;48.224;11.422;2023-06-22T03:32:22;10.38;;;4.13;;
33475;SDS011;19814;48.224;11.422;2023-06-22T03:34:48;7.65;;;3.95;;
33475;SDS011;19814;48.224;11.422;2023-06-22T03:37:14;6.28;;;3.75;;
33475;SDS011;19814;48.224;11.422;2023-06-22T03:39:40;8.52;;;3.88;;
33475;SDS011;19814;48.224;11.422;2023-06-22T03:42:06;8.75;;;4.05;;
33475;SDS011;19814;48.224;11.422;2023-06-22T03:44:32;8.07;;;3.80;;
33475;SDS011;19814;48.224;11.422;2023-06-22T03:46:58;8.90;;;4.18;;
33475;SDS011;19814;48.224;11.422;2023-06-22T03:49:23;8.73;;;4.05;;
33475;SDS011;19814;48.224;11.422;2023-06-22T03:51:49;7.15;;;4.00;;
33475;SDS011;19814;48.224;11.422;2023-06-22T03:54:14;10.98;;;3.88;;
33475;SDS011;19814;48.224;11.422;2023-06-22T03:56:40;9.02;;;4.05;;
33475;SDS011;19814;48.224;11.422;2023-06-22T03:59:05;8.90;;;4.03;;
33475;SDS011;19814;48.224;11.422;2023-06-22T04:01:31;7.78;;;4.13;;
33475;SDS011;19814;48.224;11.422;2023-06-22T04:03:56;10.88;;;4.07;;
33475;SDS011;19814;48.224;11.422;2023-06-22T04:06:22;8.48;;;4.05;;
33475;SDS011;19814;48.224;11.422;2023-06-22T04:08:47;9.60;;;4.03;;
33475;SDS011;19814;48.224;11.422;2023-06-22T04:11:15;7.47;;;4.00;;
33475;SDS011;19814;48.224;11.422;2023-06-22T04:13:42;6.95;;;3.88;;
33475;SDS011;19814;48.224;11.422;2023-06-22T04:16:08;10.57;;;4.22;;
33475;SDS011;19814;48.224;11.422;2023-06-22T04:18:33;8.85;;;4.20;;
33475;SDS011;19814;48.224;11.422;2023-06-22T04:20:59;8.30;;;4.00;;
33475;SDS011;19814;48.224;11.422;2023-06-22T04:23:24;8.25;;;4.00;;
33475;SDS011;19814;48.224;11.422;2023-06-22T04:25:50;9.35;;;4.30;;
33475;SDS011;19814;48.224;11.422;2023-06-22T04:28:16;10.70;;;4.00;;
33475;SDS011;19814;48.224;11.422;2023-06-22T04:33:30;7.55;;;3.90;;
33475;SDS011;19814;48.224;11.422;2023-06-22T04:35:56;9.27;;;4.55;;
33475;SDS011;19814;48.224;11.422;2023-06-22T04:38:23;8.80;;;4.15;;
33475;SDS011;19814;48.224;11.422;2023-06-22T04:40:50;7.35;;;4.15;;
33475;SDS011;19814;48.224;11.422;2023-06-22T04:43:16;7.50;;;3.97;;
33475;SDS011;19814;48.224;11.422;2023-06-22T04:45:41;7.43;;;3.67;;
33475;SDS011;19814;48.224;11.422;2023-06-22T04:48:07;10.63;;;3.47;;
33475;SDS011;19814;48.224;11.422;2023-06-22T04:50:34;6.80;;;3.63;;
33475;SDS011;19814;48.224;11.422;2023-06-22T04:53:03;8.60;;;4.55;;
33475;SDS011;19814;48.224;11.422;2023-06-22T04:55:31;9.23;;;3.95;;
33475;SDS011;19814;48.224;11.422;2023-06-22T04:57:57;9.43;;;3.97;;
33475;SDS011;19814;48.224;11.422;2023-06-22T05:00:29;8.57;;;3.95;;
33475;SDS011;19814;48.224;11.422;2023-06-22T05:02:55;10.32;;;4.03;;
33475;SDS011;19814;48.224;11.422;2023-06-22T05:05:22;7.32;;;4.15;;
33475;SDS011;19814;48.224;11.422;2023-06-22T05:07:50;8.88;;;4.10;;
33475;SDS011;19814;48.224;11.422;2023-06-22T05:10:18;7.70;;;3.67;;
33475;SDS011;19814;48.224;11.422;2023-06-22T05:12:44;10.80;;;4.22;;
33475;SDS011;19814;48.224;11.422;2023-06-22T05:15:10;10.30;;;4.32;;
33475;SDS011;19814;48.224;11.422;2023-06-22T05:17:36;8.00;;;3.75;;
33475;SDS011;19814;48.224;11.422;2023-06-22T05:20:11;7.80;;;4.03;;
33475;SDS011;19814;48.224;11.422;2023-06-22T05:22:38;11.75;;;4.22;;
33475;SDS011;19814;48.224;11.422;2023-06-22T05:25:05;9.75;;;4.50;;
33475;SDS011;19814;48.224;11.422;2023-06-22T05:27:33;8.63;;;3.83;;
33475;SDS011;19814;48.224;11.422;2023-06-22T05:29:59;12.20;;;4.00;;
33475;SDS011;19814;48.224;11.422;2023-06-22T05:32:24;9.70;;;4.20;;
33475;SDS011;19814;48.224;11.422;2023-06-22T05:34:50;9.43;;;4.20;;
33475;SDS011;19814;48.224;11.422;2023-06-22T05:37:15;6.95;;;3.92;;
33475;SDS011;19814;48.224;11.422;2023-06-22T05:39:41;8.73;;;3.97;;
33475;SDS011;19814;48.224;11.422;2023-06-22T05:42:07;6.50;;;3.67;;
33475;SDS011;19814;48.224;11.422;2023-06-22T05:44:33;8.75;;;4.15;;
33475;SDS011;19814;48.224;11.422;2023-06-22T05:46:58;8.23;;;4.55;;
33475;SDS011;19814;48.224;11.422;2023-06-22T05:49:24;8.48;;;3.63;;
33475;SDS011;19814;48.224;11.422;2023-06-22T05:51:54;7.78;;;4.10;;
33475;SDS011;19814;48.224;11.422;2023-06-22T05:54:20;11.23;;;4.82;;
33475;SDS011;19814;48.224;11.422;2023-06-22T05:56:45;9.40;;;4.28;;
33475;SDS011;19814;48.224;11.422;2023-06-22T05:59:11;7.70;;;3.58;;
33475;SDS011;19814;48.224;11.422;2023-06-22T06:01:37;9.93;;;4.22;;
33475;SDS011;19814;48.224;11.422;2023-06-22T06:04:03;9.57;;;3.97;;
33475;SDS011;19814;48.224;11.422;2023-06-22T06:06:29;10.13;;;3.70;;
33475;SDS011;19814;48.224;11.422;2023-06-22T06:08:54;9.88;;;4.10;;
33475;SDS011;19814;48.224;11.422;2023-06-22T06:11:21;7.55;;;3.80;;
33475;SDS011;19814;48.224;11.422;2023-06-22T06:13:46;7.63;;;3.75;;
33475;SDS011;19814;48.224;11.422;2023-06-22T06:16:12;7.35;;;3.80;;
33475;SDS011;19814;48.224;11.422;2023-06-22T06:18:38;8.10;;;4.35;;
33475;SDS011;19814;48.224;11.422;2023-06-22T06:21:03;7.60;;;3.63;;
33475;SDS011;19814;48.224;11.422;2023-06-22T06:23:29;7.85;;;3.92;;
33475;SDS011;19814;48.224;11.422;2023-06-22T06:25:54;9.20;;;4.03;;
33475;SDS011;19814;48.224;11.422;2023-06-22T06:28:20;10.30;;;4.15;;
33475;SDS011;19814;48.224;11.422;2023-06-22T06:30:46;11.32;;;3.97;;
33475;SDS011;19814;48.224;11.422;2023-06-22T06:33:12;8.52;;;3.70;;
33475;SDS011;19814;48.224;11.422;2023-06-22T06:35:38;8.95;;;3.85;;
33475;SDS011;19814;48.224;11.422;2023-06-22T06:38:04;9.65;;;4.10;;
33475;SDS011;19814;48.224;11.422;2023-06-22T06:40:29;7.35;;;3.88;;
33475;SDS011;19814;48.224;11.422;2023-06-22T06:42:55;8.27;;;4.18;;
33475;SDS011;19814;48.224;11.422;2023-06-22T06:45:21;9.57;;;4.70;;
33475;SDS011;19814;48.224;11.422;2023-06-22T06:47:48;10.10;;;4.53;;
33475;SDS011;19814;48.224;11.422;2023-06-22T06:50:14;7.57;;;3.78;;
33475;SDS011;19814;48.224;11.422;2023-06-22T06:52:40;9.77;;;3.92;;
33475;SDS011;19814;48.224;11.422;2023-06-22T06:55:07;9.40;;;4.15;;
33475;SDS011;19814;48.224;11.422;2023-06-22T06:57:34;7.95;;;3.92;;
33475;SDS011;19814;48.224;11.422;2023-06-22T06:59:59;7.57;;;3.65;;
33475;SDS011;19814;48.224;11.422;2023-06-22T07:02:25;11.00;;;4.40;;
33475;SDS011;19814;48.224;11.422;2023-06-22T07:04:52;8.68;;;3.78;;
33475;SDS011;19814;48.224;11.422;2023-06-22T07:07:20;8.95;;;4.30;;
33475;SDS011;19814;48.224;11.422;2023-06-22T07:09:45;8.25;;;4.57;;
33475;SDS011;19814;48.224;11.422;2023-06-22T07:12:11;8.38;;;4.25;;
33475;SDS011;19814;48.224;11.422;2023-06-22T07:14:36;10.23;;;4.50;;
33475;SDS011;19814;48.224;11.422;2023-06-22T07:17:02;9.18;;;4.70;;
33475;SDS011;19814;48.224;11.422;2023-06-22T07:19:28;9.32;;;4.20;;
33475;SDS011;19814;48.224;11.422;2023-06-22T07:21:54;9.23;;;3.92;;
33475;SDS011;19814;48.224;11.422;2023-06-22T07:24:20;8.68;;;4.65;;
33475;SDS011;19814;48.224;11.422;2023-06-22T07:26:49;9.23;;;3.88;;
33475;SDS011;19814;48.224;11.422;2023-06-22T07:29:18;10.18;;;4.20;;
33475;SDS011;19814;48.224;11.422;2023-06-22T07:31:48;10.00;;;4.28;;
33475;SDS011;19814;48.224;11.422;2023-06-22T07:34:16;8.55;;;4.63;;
33475;SDS011;19814;48.224;11.422;2023-06-22T07:36:42;8.05;;;4.57;;
33475;SDS011;19814;48.224;11.422;2023-06-22T07:39:11;8.27;;;3.95;;
33475;SDS011;19814;48.224;11.422;2023-06-22T07:41:40;11.68;;;4.68;;
33475;SDS011;19814;48.224;11.422;2023-06-22T07:44:06;10.75;;;4.57;;
33475;SDS011;19814;48.224;11.422;2023-06-22T07:46:32;10.98;;;4.28;;
33475;SDS011;19814;48.224;11.422;2023-06-22T07:48:58;9.75;;;4.35;;
33475;SDS011;19814;48.224;11.422;2023-06-22T07:51:24;8.43;;;4.28;;
33475;SDS011;19814;48.224;11.422;2023-06-22T07:53:50;11.73;;;3.97;;
33475;SDS011;19814;48.224;11.422;2023-06-22T07:56:15;10.15;;;4.28;;
33475;SDS011;19814;48.224;11.422;2023-06-22T07:58:45;11.60;;;5.38;;
33475;SDS011;19814;48.224;11.422;2023-06-22T08:01:11;9.02;;;3.80;;
33475;SDS011;19814;48.224;11.422;2023-06-22T08:03:37;7.72;;;4.30;;
33475;SDS011;19814;48.224;11.422;2023-06-22T08:06:04;10.07;;;4.45;;
33475;SDS011;19814;48.224;11.422;2023-06-22T08:08:30;11.85;;;4.80;;
33475;SDS011;19814;48.224;11.422;2023-06-22T08:10:59;8.45;;;4.40;;
33475;SDS011;19814;48.224;11.422;2023-06-22T08:13:27;10.95;;;4.15;;
33475;SDS011;19814;48.224;11.422;2023-06-22T08:15:53;9.75;;;4.95;;
33475;SDS011;19814;48.224;11.422;2023-06-22T08:18:18;11.45;;;4.68;;
33475;SDS011;19814;48.224;11.422;2023-06-22T08:20:44;10.77;;;4.55;;
33475;SDS011;19814;48.224;11.422;2023-06-22T08:23:10;9.48;;;4.20;;
33475;SDS011;19814;48.224;11.422;2023-06-22T08:25:35;9.48;;;3.40;;
33475;SDS011;19814;48.224;11.422;2023-06-22T08:28:01;9.48;;;4.78;;
33475;SDS011;19814;48.224;11.422;2023-06-22T08:30:28;9.65;;;3.85;;
33475;SDS011;19814;48.224;11.422;2023-06-22T08:32:53;7.88;;;3.90;;
33475;SDS011;19814;48.224;11.422;2023-06-22T08:35:20;9.38;;;4.93;;
33475;SDS011;19814;48.224;11.422;2023-06-22T08:37:49;10.47;;;5.47;;
33475;SDS011;19814;48.224;11.422;2023-06-22T08:40:17;10.48;;;4.50;;
33475;SDS011;19814;48.224;11.422;2023-06-22T08:42:44;8.93;;;4.13;;
33475;SDS011;19814;48.224;11.422;2023-06-22T08:45:10;8.60;;;4.30;;
33475;SDS011;19814;48.224;11.422;2023-06-22T08:47:36;10.93;;;4.30;;
33475;SDS011;19814;48.224;11.422;2023-06-22T08:50:02;9.10;;;4.40;;
33475;SDS011;19814;48.224;11.422;2023-06-22T08:52:28;10.95;;;4.30;;
33475;SDS011;19814;48.224;11.422;2023-06-22T08:54:54;10.52;;;4.65;;
33475;SDS011;19814;48.224;11.422;2023-06-22T08:57:20;11.60;;;4.32;;
33475;SDS011;19814;48.224;11.422;2023-06-22T08:59:46;8.00;;;4.00;;
33475;SDS011;19814;48.224;11.422;2023-06-22T09:02:12;8.38;;;4.35;;
33475;SDS011;19814;48.224;11.422;2023-06-22T09:04:38;10.82;;;3.90;;
33475;SDS011;19814;48.224;11.422;2023-06-22T09:07:03;13.55;;;4.38;;
33475;SDS011;19814;48.224;11.422;2023-06-22T09:09:29;11.93;;;4.80;;
33475;SDS011;19814;48.224;11.422;2023-06-22T09:11:55;10.88;;;4.38;;
33475;SDS011;19814;48.224;11.422;2023-06-22T09:14:20;11.43;;;4.28;;
33475;SDS011;19814;48.224;11.422;2023-06-22T09:16:46;10.23;;;4.35;;
33475;SDS011;19814;48.224;11.422;2023-06-22T09:19:11;8.85;;;4.35;;
33475;SDS011;19814;48.224;11.422;2023-06-22T09:21:37;10.73;;;4.68;;
33475;SDS011;19814;48.224;11.422;2023-06-22T09:24:03;11.68;;;4.55;;
33475;SDS011;19814;48.224;11.422;2023-06-22T09:26:28;9.77;;;4.28;;
33475;SDS011;19814;48.224;11.422;2023-06-22T09:28:54;11.68;;;4.50;;
33475;SDS011;19814;48.224;11.422;2023-06-22T09:31:20;11.18;;;4.28;;
33475;SDS011;19814;48.224;11.422;2023-06-22T09:33:52;10.73;;;4.50;;
33475;SDS011;19814;48.224;11.422;2023-06-22T09:36:19;10.60;;;4.32;;
33475;SDS011;19814;48.224;11.422;2023-06-22T09:38:47;9.93;;;4.00;;
33475;SDS011;19814;48.224;11.422;2023-06-22T09:41:14;11.90;;;3.90;;
33475;SDS011;19814;48.224;11.422;2023-06-22T09:43:40;10.38;;;4.30;;
33475;SDS011;19814;48.224;11.422;2023-06-22T09:46:06;9.40;;;4.32;;
33475;SDS011;19814;48.224;11.422;2023-06-22T09:48:32;7.53;;;3.83;;
33475;SDS011;19814;48.224;11.422;2023-06-22T09:50:57;11.98;;;4.53;;
33475;SDS011;19814;48.224;11.422;2023-06-22T09:53:23;9.30;;;4.10;;
33475;SDS011;19814;48.224;11.422;2023-06-22T09:55:48;9.30;;;4.35;;
33475;SDS011;19814;48.224;11.422;2023-06-22T09:58:14;11.93;;;4.43;;
33475;SDS011;19814;48.224;11.422;2023-06-22T10:00:39;11.63;;;4.03;;
33475;SDS011;19814;48.224;11.422;2023-06-22T10:03:06;10.15;;;4.45;;
33475;SDS011;19814;48.224;11.422;2023-06-22T10:05:32;7.63;;;4.45;;
33475;SDS011;19814;48.224;11.422;2023-06-22T10:07:57;13.93;;;4.65;;
33475;SDS011;19814;48.224;11.422;2023-06-22T10:10:23;9.40;;;4.28;;
33475;SDS011;19814;48.224;11.422;2023-06-22T10:12:54;9.70;;;3.83;;
33475;SDS011;19814;48.224;11.422;2023-06-22T10:15:22;10.13;;;4.43;;
33475;SDS011;19814;48.224;11.422;2023-06-22T10:17:48;10.32;;;4.70;;
33475;SDS011;19814;48.224;11.422;2023-06-22T10:20:14;10.52;;;4.45;;
33475;SDS011;19814;48.224;11.422;2023-06-22T10:22:39;12.02;;;4.30;;
33475;SDS011;19814;48.224;11.422;2023-06-22T10:25:06;11.90;;;4.65;;
33475;SDS011;19814;48.224;11.422;2023-06-22T10:27:32;8.32;;;4.05;;
33475;SDS011;19814;48.224;11.422;2023-06-22T10:29:58;9.27;;;4.05;;
33475;SDS011;19814;48.224;11.422;2023-06-22T10:32:23;8.93;;;4.55;;
33475;SDS011;19814;48.224;11.422;2023-06-22T10:34:49;9.88;;;4.35;;
33475;SDS011;19814;48.224;11.422;2023-06-22T10:37:15;11.82;;;5.00;;
33475;SDS011;19814;48.224;11.422;2023-06-22T10:39:40;11.75;;;3.92;;
33475;SDS011;19814;48.224;11.422;2023-06-22T10:42:06;11.00;;;4.50;;
33475;SDS011;19814;48.224;11.422;2023-06-22T10:44:32;10.75;;;4.47;;
33475;SDS011;19814;48.224;11.422;2023-06-22T10:46:57;9.55;;;4.10;;
33475;SDS011;19814;48.224;11.422;2023-06-22T10:49:23;10.05;;;3.88;;
33475;SDS011;19814;48.224;11.422;2023-06-22T10:51:48;12.65;;;4.20;;
33475;SDS011;19814;48.224;11.422;2023-06-22T10:54:14;10.10;;;4.95;;
33475;SDS011;19814;48.224;11.422;2023-06-22T10:56:42;11.38;;;4.72;;
33475;SDS011;19814;48.224;11.422;2023-06-22T10:59:07;11.02;;;4.60;;
33475;SDS011;19814;48.224;11.422;2023-06-22T11:01:33;8.20;;;4.13;;
33475;SDS011;19814;48.224;11.422;2023-06-22T11:03:58;9.15;;;3.97;;
33475;SDS011;19814;48.224;11.422;2023-06-22T11:06:24;9.32;;;4.75;;
33475;SDS011;19814;48.224;11.422;2023-06-22T11:08:49;10.88;;;4.00;;
33475;SDS011;19814;48.224;11.422;2023-06-22T11:11:15;12.73;;;4.60;;
33475;SDS011;19814;48.224;11.422;2023-06-22T11:13:42;10.05;;;4.35;;
33475;SDS011;19814;48.224;11.422;2023-06-22T11:16:08;13.63;;;4.78;;
33475;SDS011;19814;48.224;11.422;2023-06-22T11:18:34;11.40;;;4.50;;
33475;SDS011;19814;48.224;11.422;2023-06-22T11:21:00;12.50;;;4.82;;
33475;SDS011;19814;48.224;11.422;2023-06-22T11:23:26;12.48;;;4.80;;
33475;SDS011;19814;48.224;11.422;2023-06-22T11:25:52;9.88;;;4.07;;
33475;SDS011;19814;48.224;11.422;2023-06-22T11:28:21;9.00;;;3.50;;
33475;SDS011;19814;48.224;11.422;2023-06-22T11:30:46;10.07;;;4.75;;
33475;SDS011;19814;48.224;11.422;2023-06-22T11:33:12;10.77;;;4.18;;
33475;SDS011;19814;48.224;11.422;2023-06-22T11:35:37;11.50;;;4.45;;
33475;SDS011;19814;48.224;11.422;2023-06-22T11:38:03;15.43;;;4.68;;
33475;SDS011;19814;48.224;11.422;2023-06-22T11:40:29;10.82;;;4.20;;
33475;SDS011;19814;48.224;11.422;2023-06-22T11:42:55;8.68;;;4.22;;
33475;SDS011;19814;48.224;11.422;2023-06-22T11:45:21;10.48;;;4.55;;
33475;SDS011;19814;48.224;11.422;2023-06-22T11:47:46;10.38;;;4.18;;
33475;SDS011;19814;48.224;11.422;2023-06-22T11:50:12;11.52;;;4.63;;
33475;SDS011;19814;48.224;11.422;2023-06-22T11:52:38;10.15;;;4.32;;
33475;SDS011;19814;48.224;11.422;2023-06-22T11:55:04;7.43;;;4.03;;
33475;SDS011;19814;48.224;11.422;2023-06-22T11:57:35;10.55;;;3.97;;
33475;SDS011;19814;48.224;11.422;2023-06-22T12:00:03;11.27;;;4.07;;
33475;SDS011;19814;48.224;11.422;2023-06-22T12:02:42;8.13;;;4.18;;
33475;SDS011;19814;48.224;11.422;2023-06-22T12:05:09;8.73;;;4.38;;
33475;SDS011;19814;48.224;11.422;2023-06-22T12:07:35;11.13;;;4.63;;
33475;SDS011;19814;48.224;11.422;2023-06-22T12:10:02;9.77;;;4.55;;
33475;SDS011;19814;48.224;11.422;2023-06-22T12:12:28;9.48;;;4.13;;
33475;SDS011;19814;48.224;11.422;2023-06-22T12:14:53;8.40;;;4.57;;
33475;SDS011;19814;48.224;11.422;2023-06-22T12:17:19;7.63;;;3.80;;
33475;SDS011;19814;48.224;11.422;2023-06-22T12:19:44;13.02;;;4.32;;
33475;SDS011;19814;48.224;11.422;2023-06-22T12:22:10;9.88;;;4.35;;
33475;SDS011;19814;48.224;11.422;2023-06-22T12:24:35;8.85;;;4.30;;
33475;SDS011;19814;48.224;11.422;2023-06-22T12:27:01;12.50;;;4.35;;
33475;SDS011;19814;48.224;11.422;2023-06-22T12:29:28;10.40;;;4.00;;
33475;SDS011;19814;48.224;11.422;2023-06-22T12:31:54;13.18;;;4.38;;
33475;SDS011;19814;48.224;11.422;2023-06-22T12:34:19;10.82;;;4.18;;
33475;SDS011;19814;48.224;11.422;2023-06-22T12:36:45;7.05;;;3.72;;
33475;SDS011;19814;48.224;11.422;2023-06-22T12:39:13;8.43;;;4.38;;
33475;SDS011;19814;48.224;11.422;2023-06-22T12:41:38;9.00;;;4.60;;
33475;SDS011;19814;48.224;11.422;2023-06-22T12:44:04;9.43;;;4.18;;
33475;SDS011;19814;48.224;11.422;2023-06-22T12:46:29;7.82;;;3.90;;
33475;SDS011;19814;48.224;11.422;2023-06-22T12:49:01;9.88;;;4.82;;
33475;SDS011;19814;48.224;11.422;2023-06-22T12:51:27;9.40;;;4.30;;
33475;SDS011;19814;48.224;11.422;2023-06-22T12:53:52;9.50;;;4.10;;
33475;SDS011;19814;48.224;11.422;2023-06-22T12:56:18;12.18;;;4.28;;
33475;SDS011;19814;48.224;11.422;2023-06-22T12:58:44;7.32;;;3.90;;
33475;SDS011;19814;48.224;11.422;2023-06-22T13:01:09;9.40;;;4.20;;
33475;SDS011;19814;48.224;11.422;2023-06-22T13:03:35;6.10;;;3.90;;
33475;SDS011;19814;48.224;11.422;2023-06-22T13:06:00;10.95;;;4.55;;
33475;SDS011;19814;48.224;11.422;2023-06-22T13:08:26;13.05;;;4.30;;
33475;SDS011;19814;48.224;11.422;2023-06-22T13:10:51;7.05;;;3.85;;
33475;SDS011;19814;48.224;11.422;2023-06-22T13:13:16;9.55;;;3.78;;
33475;SDS011;19814;48.224;11.422;2023-06-22T13:15:42;8.43;;;4.13;;
33475;SDS011;19814;48.224;11.422;2023-06-22T13:18:08;11.10;;;4.00;;
33475;SDS011;19814;48.224;11.422;2023-06-22T13:20:34;8.65;;;4.15;;
33475;SDS011;19814;48.224;11.422;2023-06-22T13:22:59;8.95;;;4.03;;
33475;SDS011;19814;48.224;11.422;2023-06-22T13:25:25;12.00;;;4.13;;
33475;SDS011;19814;48.224;11.422;2023-06-22T13:27:51;7.68;;;3.45;;
33475;SDS011;19814;48.224;11.422;2023-06-22T13:30:17;10.23;;;4.15;;
33475;SDS011;19814;48.224;11.422;2023-06-22T13:32:42;7.93;;;3.90;;
33475;SDS011;19814;48.224;11.422;2023-06-22T13:35:11;7.50;;;3.90;;
33475;SDS011;19814;48.224;11.422;2023-06-22T13:37:37;7.82;;;3.80;;
33475;SDS011;19814;48.224;11.422;2023-06-22T13:40:03;8.07;;;3.70;;
33475;SDS011;19814;48.224;11.422;2023-06-22T13:42:31;10.20;;;3.70;;
33475;SDS011;19814;48.224;11.422;2023-06-22T13:44:57;7.65;;;3.97;;
33475;SDS011;19814;48.224;11.422;2023-06-22T13:47:23;7.65;;;3.55;;
33475;SDS011;19814;48.224;11.422;2023-06-22T13:49:48;6.90;;;4.05;;
33475;SDS011;19814;48.224;11.422;2023-06-22T13:52:14;10.13;;;3.90;;
33475;SDS011;19814;48.224;11.422;2023-06-22T13:54:40;12.35;;;3.55;;
33475;SDS011;19814;48.224;11.422;2023-06-22T13:57:05;10.82;;;4.45;;
33475;SDS011;19814;48.224;11.422;2023-06-22T13:59:31;7.45;;;3.60;;
33475;SDS011;19814;48.224;11.422;2023-06-22T14:01:57;8.05;;;3.67;;
33475;SDS011;19814;48.224;11.422;2023-06-22T14:04:23;7.03;;;4.63;;
33475;SDS011;19814;48.224;11.422;2023-06-22T14:06:48;11.40;;;4.07;;
33475;SDS011;19814;48.224;11.422;2023-06-22T14:09:14;9.35;;;3.45;;
33475;SDS011;19814;48.224;11.422;2023-06-22T14:11:40;9.50;;;3.58;;
33475;SDS011;19814;48.224;11.422;2023-06-22T14:14:05;13.07;;;4.32;;
33475;SDS011;19814;48.224;11.422;2023-06-22T14:16:31;10.02;;;3.75;;
33475;SDS011;19814;48.224;11.422;2023-06-22T14:18:56;11.13;;;4.18;;
33475;SDS011;19814;48.224;11.422;2023-06-22T14:21:22;8.95;;;3.83;;
33475;SDS011;19814;48.224;11.422;2023-06-22T14:23:47;13.02;;;4.50;;
33475;SDS011;19814;48.224;11.422;2023-06-22T14:26:15;8.23;;;4.03;;
33475;SDS011;19814;48.224;11.422;2023-06-22T14:28:42;12.48;;;4.00;;
33475;SDS011;19814;48.224;11.422;2023-06-22T14:31:16;9.95;;;3.60;;
33475;SDS011;19814;48.224;11.422;2023-06-22T14:33:45;8.13;;;3.45;;
33475;SDS011;19814;48.224;11.422;2023-06-22T14:36:15;13.00;;;4.07;;